Time;durP1;ratioP1;P1;durP2;ratioP2;P2;SDS_P1;SDS_P2;PMS_P1;PMS_P2;Temp;Humidity;BMP_temperature;BMP_pressure;BME280_temperature;BME280_humidity;BME280_pressure;Samples;Min_cycle;Max_cycle;Signal;HPM_P1;HPM_P2
2021/05/29 00:01:00;;;;;;;20.27;10.80;;;14.10;99.90;;;;;;5074192;28;20067;-88
2021/05/29 00:03:28;;;;;;;24.85;10.98;;;14.10;99.90;;;;;;5066039;28;20057;-87
2021/05/29 00:05:56;;;;;;;19.95;12.60;;;14.10;99.90;;;;;;5062748;28;20053;-85
2021/05/29 00:08:26;;;;;;;22.23;10.85;;;14.10;99.90;;;;;;5065475;28;20060;-86
2021/05/29 00:10:57;;;;;;;26.23;11.65;;;14.00;99.90;;;;;;5059921;28;20499;-87
2021/05/29 00:13:26;;;;;;;25.45;10.48;;;14.00;99.90;;;;;;5058549;28;20052;-86
2021/05/29 00:15:55;;;;;;;21.83;11.80;;;13.90;99.90;;;;;;5062715;28;20053;-85
2021/05/29 00:18:26;;;;;;;25.27;10.50;;;13.90;99.90;;;;;;5069227;28;20060;-87
2021/05/29 00:20:55;;;;;;;21.45;10.93;;;13.90;99.90;;;;;;5064787;28;20048;-85
2021/05/29 00:23:23;;;;;;;22.45;11.00;;;13.90;99.90;;;;;;5068512;28;20063;-87
2021/05/29 00:25:51;;;;;;;25.40;11.40;;;13.90;99.90;;;;;;5055198;28;20535;-85
2021/05/29 00:28:19;;;;;;;20.05;9.25;;;13.90;99.90;;;;;;5059545;28;20052;-87
2021/05/29 00:30:47;;;;;;;23.10;10.15;;;13.90;99.90;;;;;;5060617;28;20053;-87
2021/05/29 00:33:15;;;;;;;21.80;9.35;;;13.90;99.90;;;;;;5056255;28;20083;-88
2021/05/29 00:35:42;;;;;;;23.77;9.40;;;13.90;99.90;;;;;;5054777;28;20075;-85
2021/05/29 00:38:10;;;;;;;21.85;11.05;;;13.90;99.90;;;;;;5065722;28;20056;-86
2021/05/29 00:40:39;;;;;;;26.58;10.70;;;13.90;99.90;;;;;;5069505;28;20305;-86
2021/05/29 00:43:06;;;;;;;21.73;9.45;;;13.90;99.90;;;;;;5063157;28;20059;-86
2021/05/29 00:45:34;;;;;;;29.90;11.05;;;13.90;99.90;;;;;;5067269;28;20492;-86
2021/05/29 00:48:03;;;;;;;21.50;11.30;;;13.80;99.90;;;;;;5051056;28;20055;-86
2021/05/29 00:50:32;;;;;;;24.73;11.40;;;13.70;99.90;;;;;;5056376;28;20060;-88
2021/05/29 00:53:01;;;;;;;19.52;10.25;;;13.80;99.90;;;;;;5062590;28;20052;-86
2021/05/29 00:55:28;;;;;;;21.45;11.68;;;13.70;99.90;;;;;;5068729;28;20056;-88
2021/05/29 00:57:56;;;;;;;21.30;10.52;;;13.70;99.90;;;;;;5058889;28;20048;-86
2021/05/29 01:00:24;;;;;;;25.63;9.75;;;13.70;99.90;;;;;;5071503;28;20055;-86
2021/05/29 01:02:56;;;;;;;20.63;9.60;;;13.70;99.90;;;;;;5070898;28;20053;-86
2021/05/29 01:05:23;;;;;;;19.25;10.07;;;13.70;99.90;;;;;;5076319;28;20423;-87
2021/05/29 01:07:53;;;;;;;21.92;9.95;;;13.70;99.90;;;;;;5068694;28;20037;-88
2021/05/29 01:10:23;;;;;;;20.85;10.52;;;13.70;99.90;;;;;;5072568;28;20060;-85
2021/05/29 01:12:53;;;;;;;27.02;11.70;;;13.60;99.90;;;;;;5064122;28;20067;-86
2021/05/29 01:15:22;;;;;;;23.50;11.82;;;13.60;99.90;;;;;;5054108;28;20060;-85
2021/05/29 01:17:50;;;;;;;26.67;11.25;;;13.60;99.90;;;;;;5075413;28;20079;-85
2021/05/29 01:20:23;;;;;;;16.73;10.18;;;13.70;99.90;;;;;;5064129;28;20079;-85
2021/05/29 01:22:53;;;;;;;24.80;10.77;;;13.70;99.90;;;;;;5066925;28;20048;-85
2021/05/29 01:25:40;;;;;;;22.20;10.02;;;13.60;99.90;;;;;;5065571;28;20057;-84
2021/05/29 01:28:12;;;;;;;27.17;10.95;;;13.60;99.90;;;;;;5071240;28;20041;-85
2021/05/29 01:30:43;;;;;;;21.27;10.18;;;13.70;99.90;;;;;;5075070;28;20751;-86
2021/05/29 01:33:23;;;;;;;24.77;9.98;;;13.60;99.90;;;;;;5067460;28;20053;-86
2021/05/29 01:35:56;;;;;;;19.00;9.85;;;13.60;99.90;;;;;;5064927;28;20056;-88
2021/05/29 01:38:25;;;;;;;25.33;11.38;;;13.60;99.90;;;;;;5065315;28;20071;-85
2021/05/29 01:40:57;;;;;;;22.58;9.93;;;13.60;99.90;;;;;;5068299;28;20045;-86
2021/05/29 01:43:25;;;;;;;18.15;8.85;;;13.50;99.90;;;;;;5068485;28;20048;-86
2021/05/29 01:45:53;;;;;;;20.83;9.32;;;13.50;99.90;;;;;;5066115;28;20222;-86
2021/05/29 01:48:22;;;;;;;18.38;9.48;;;13.50;99.90;;;;;;5072304;28;20045;-85
2021/05/29 01:50:54;;;;;;;18.27;9.70;;;13.40;99.90;;;;;;5066121;28;20063;-85
2021/05/29 01:53:23;;;;;;;17.25;9.93;;;13.40;99.90;;;;;;5066119;28;20068;-87
2021/05/29 01:55:51;;;;;;;23.27;10.32;;;13.40;99.90;;;;;;5065308;28;20045;-85
2021/05/29 01:58:19;;;;;;;24.05;10.75;;;13.40;99.90;;;;;;5074301;28;20079;-85
2021/05/29 02:00:48;;;;;;;18.80;9.95;;;13.30;99.90;;;;;;5073119;28;20063;-85
2021/05/29 02:03:16;;;;;;;21.83;10.95;;;13.40;99.90;;;;;;5067572;28;20482;-86
2021/05/29 02:05:44;;;;;;;23.58;10.25;;;13.40;99.90;;;;;;5071235;28;20052;-84
2021/05/29 02:08:13;;;;;;;18.67;11.05;;;13.30;99.90;;;;;;5052043;28;20047;-86
2021/05/29 02:10:43;;;;;;;21.05;11.57;;;13.30;99.90;;;;;;5076186;28;20064;-86
2021/05/29 02:13:44;;;;;;;24.00;12.90;;;13.30;99.90;;;;;;5076817;28;20037;-85
2021/05/29 02:16:13;;;;;;;21.65;10.98;;;13.30;99.90;;;;;;5027664;28;20053;-86
2021/05/29 02:18:42;;;;;;;26.33;13.25;;;13.30;99.90;;;;;;5062172;28;20543;-86
2021/05/29 02:21:13;;;;;;;24.52;12.73;;;13.30;99.90;;;;;;5072842;28;20049;-85
2021/05/29 02:23:43;;;;;;;25.55;13.13;;;13.20;99.90;;;;;;5072746;28;20063;-85
2021/05/29 02:26:18;;;;;;;30.67;16.30;;;13.20;99.90;;;;;;5066707;28;20059;-86
2021/05/29 02:28:50;;;;;;;27.25;15.40;;;13.20;99.90;;;;;;5065981;28;20040;-86
2021/05/29 02:31:19;;;;;;;29.17;15.32;;;13.20;99.90;;;;;;5047704;28;20064;-86
2021/05/29 02:33:48;;;;;;;29.02;15.88;;;13.10;99.90;;;;;;5072233;28;20048;-86
2021/05/29 02:36:16;;;;;;;31.33;17.10;;;13.10;99.90;;;;;;5055042;28;20056;-85
2021/05/29 02:38:44;;;;;;;31.35;18.58;;;13.10;99.90;;;;;;5064207;28;20092;-86
2021/05/29 02:41:13;;;;;;;28.48;18.67;;;13.10;99.90;;;;;;5058363;28;20571;-86
2021/05/29 02:43:41;;;;;;;32.80;19.85;;;13.10;99.90;;;;;;5070807;28;20067;-88
2021/05/29 02:46:09;;;;;;;32.08;18.20;;;13.10;99.90;;;;;;5082631;28;20056;-86
2021/05/29 02:48:38;;;;;;;32.67;20.25;;;13.00;99.90;;;;;;5081916;28;20059;-87
2021/05/29 02:51:06;;;;;;;34.53;23.75;;;13.10;99.90;;;;;;5078756;28;20055;-85
2021/05/29 02:53:34;;;;;;;32.45;19.65;;;13.00;99.90;;;;;;5055246;28;20079;-88
2021/05/29 02:56:02;;;;;;;34.80;19.25;;;13.00;99.90;;;;;;5071697;28;20081;-86
2021/05/29 02:58:30;;;;;;;36.90;20.02;;;12.90;99.90;;;;;;5057730;28;20052;-85
2021/05/29 03:00:58;;;;;;;37.95;22.40;;;13.00;99.90;;;;;;5068358;28;20059;-86
2021/05/29 03:03:25;;;;;;;35.42;20.08;;;13.00;99.90;;;;;;5062815;28;20519;-85
2021/05/29 03:05:54;;;;;;;37.75;21.65;;;13.00;99.90;;;;;;5075073;28;20055;-86
2021/05/29 03:08:23;;;;;;;30.38;18.95;;;13.00;99.90;;;;;;5064165;28;20052;-87
2021/05/29 03:10:53;;;;;;;32.70;22.42;;;13.00;99.90;;;;;;5067420;28;20472;-87
2021/05/29 03:13:22;;;;;;;35.95;21.63;;;13.00;99.90;;;;;;5070076;28;20049;-86
2021/05/29 03:15:49;;;;;;;33.70;20.65;;;13.00;99.90;;;;;;5058990;28;20056;-86
2021/05/29 03:18:17;;;;;;;34.17;21.27;;;13.00;99.90;;;;;;5064488;28;20040;-87
2021/05/29 03:20:45;;;;;;;34.28;21.35;;;12.90;99.90;;;;;;5049578;28;20044;-87
2021/05/29 03:23:13;;;;;;;35.78;22.10;;;13.00;99.90;;;;;;5072062;28;20052;-87
2021/05/29 03:25:42;;;;;;;34.85;21.40;;;13.00;99.90;;;;;;5072744;28;20048;-88
2021/05/29 03:28:10;;;;;;;39.40;21.05;;;13.00;99.90;;;;;;5063194;28;20072;-85
2021/05/29 03:30:40;;;;;;;33.20;20.08;;;13.00;99.90;;;;;;5061386;28;20033;-86
2021/05/29 03:33:11;;;;;;;31.02;21.65;;;13.00;99.90;;;;;;5070074;28;20112;-85
2021/05/29 03:35:39;;;;;;;36.67;21.63;;;13.00;99.90;;;;;;5075764;28;20049;-87
2021/05/29 03:38:07;;;;;;;32.63;19.00;;;13.00;99.90;;;;;;5071318;28;20044;-86
2021/05/29 03:40:35;;;;;;;31.05;18.95;;;13.00;99.90;;;;;;5070811;28;20060;-86
2021/05/29 03:43:03;;;;;;;39.28;20.55;;;13.00;99.90;;;;;;5074364;28;20056;-85
2021/05/29 03:45:30;;;;;;;32.30;19.92;;;13.00;99.90;;;;;;5074067;28;20421;-85
2021/05/29 03:47:58;;;;;;;28.88;18.88;;;13.10;99.90;;;;;;5057377;28;20048;-85
2021/05/29 03:50:26;;;;;;;32.22;17.88;;;13.00;99.90;;;;;;5065888;28;20052;-86
2021/05/29 03:52:54;;;;;;;31.55;19.90;;;13.10;99.90;;;;;;5073968;28;20044;-86
2021/05/29 03:55:23;;;;;;;35.17;20.45;;;13.00;99.90;;;;;;5065068;28;20060;-85
2021/05/29 03:57:51;;;;;;;33.53;18.55;;;13.00;99.90;;;;;;5072571;28;20044;-86
2021/05/29 04:00:22;;;;;;;32.80;20.85;;;13.10;99.90;;;;;;5065879;28;20068;-86
2021/05/29 04:02:50;;;;;;;31.50;19.67;;;13.10;99.90;;;;;;5068052;28;20037;-87
2021/05/29 04:05:19;;;;;;;31.90;18.55;;;13.10;99.90;;;;;;5073439;28;20052;-86
2021/05/29 04:07:49;;;;;;;35.45;20.30;;;13.10;99.90;;;;;;5063427;28;20037;-86
2021/05/29 04:10:23;;;;;;;32.22;19.63;;;13.10;99.90;;;;;;5063209;28;20052;-87
2021/05/29 04:12:52;;;;;;;41.75;21.40;;;13.10;99.90;;;;;;5035795;28;20052;-86
2021/05/29 04:15:21;;;;;;;38.40;21.20;;;13.20;99.90;;;;;;5072111;28;20411;-85
2021/05/29 04:17:50;;;;;;;40.17;20.92;;;13.10;99.90;;;;;;5072383;28;20053;-88
2021/05/29 04:20:20;;;;;;;38.53;22.25;;;13.10;99.90;;;;;;5071935;28;20573;-87
2021/05/29 04:22:48;;;;;;;39.80;23.48;;;13.10;99.90;;;;;;5071930;28;20053;-86
2021/05/29 04:25:19;;;;;;;41.00;22.13;;;13.10;99.90;;;;;;5052980;28;20056;-86
2021/05/29 04:27:48;;;;;;;38.75;22.42;;;13.10;99.90;;;;;;5063405;28;20049;-86
2021/05/29 04:30:18;;;;;;;38.20;22.75;;;13.10;99.90;;;;;;5068973;28;20076;-85
2021/05/29 04:32:47;;;;;;;39.20;23.98;;;13.10;99.90;;;;;;5067131;28;20051;-87
2021/05/29 04:35:16;;;;;;;40.75;24.77;;;13.10;99.90;;;;;;5067683;28;20524;-86
2021/05/29 04:37:47;;;;;;;37.83;21.85;;;13.20;99.90;;;;;;5065283;28;20103;-86
2021/05/29 04:40:17;;;;;;;33.30;21.33;;;13.20;99.90;;;;;;5063723;28;20492;-89
2021/05/29 04:42:49;;;;;;;42.95;23.40;;;13.20;99.90;;;;;;5055715;28;20484;-87
2021/05/29 04:45:18;;;;;;;44.78;23.27;;;13.20;99.90;;;;;;5059111;28;20072;-88
2021/05/29 04:47:47;;;;;;;41.40;23.63;;;13.20;99.90;;;;;;5051037;28;20080;-87
2021/05/29 04:50:15;;;;;;;42.58;25.23;;;13.50;99.90;;;;;;5068441;28;20052;-87
2021/05/29 04:52:43;;;;;;;35.55;21.85;;;13.30;99.90;;;;;;5069480;28;20053;-86
2021/05/29 04:55:12;;;;;;;37.60;22.92;;;13.30;99.90;;;;;;5062886;28;20052;-90
2021/05/29 04:57:40;;;;;;;46.28;25.75;;;13.30;99.90;;;;;;5061636;28;20060;-87
2021/05/29 05:00:11;;;;;;;45.95;25.60;;;13.40;99.90;;;;;;5069978;28;20049;-86
2021/05/29 05:02:39;;;;;;;38.22;22.38;;;13.40;99.90;;;;;;5068313;28;20045;-88
2021/05/29 05:05:09;;;;;;;38.90;23.10;;;13.40;99.90;;;;;;5065918;28;20064;-85
2021/05/29 05:07:37;;;;;;;43.97;24.98;;;13.40;99.90;;;;;;5062504;28;20064;-85
2021/05/29 05:10:06;;;;;;;45.78;23.30;;;12.70;99.90;;;;;;5061909;28;20519;-88
2021/05/29 05:12:34;;;;;;;41.28;23.52;;;13.50;99.90;;;;;;5069293;28;20056;-87
2021/05/29 05:15:03;;;;;;;42.75;27.23;;;13.50;99.90;;;;;;5066412;28;20068;-85
2021/05/29 05:17:31;;;;;;;42.50;23.65;;;13.50;99.90;;;;;;5067719;28;20056;-86
2021/05/29 05:19:59;;;;;;;40.60;22.42;;;13.50;99.90;;;;;;5070133;28;20079;-87
2021/05/29 05:22:27;;;;;;;35.85;21.13;;;13.60;99.90;;;;;;5066337;28;20044;-87
2021/05/29 05:24:55;;;;;;;54.65;23.40;;;13.60;99.90;;;;;;5067489;28;20048;-88
2021/05/29 05:27:23;;;;;;;37.00;21.85;;;13.60;99.90;;;;;;5057287;28;20057;-86
2021/05/29 05:29:51;;;;;;;43.83;24.48;;;13.60;99.90;;;;;;5064135;28;20080;-87
2021/05/29 05:32:19;;;;;;;38.72;23.75;;;13.60;99.90;;;;;;5075728;28;20068;-88
2021/05/29 05:34:47;;;;;;;41.88;22.52;;;13.70;99.90;;;;;;5056664;28;20641;-90
2021/05/29 05:37:15;;;;;;;35.33;20.83;;;13.70;99.90;;;;;;5074640;28;20510;-87
2021/05/29 05:39:43;;;;;;;35.40;21.00;;;13.80;99.90;;;;;;5062014;28;20052;-88
2021/05/29 05:42:11;;;;;;;37.10;21.63;;;13.80;99.90;;;;;;5072459;28;20075;-86
2021/05/29 05:44:39;;;;;;;34.13;21.15;;;13.90;99.90;;;;;;5069545;28;20040;-86
2021/05/29 05:47:07;;;;;;;31.48;19.15;;;14.00;99.90;;;;;;5061685;28;20052;-86
2021/05/29 05:49:37;;;;;;;30.30;18.90;;;14.10;99.90;;;;;;5065008;28;20049;-85
2021/05/29 05:52:05;;;;;;;32.53;17.58;;;14.10;99.90;;;;;;5060957;28;20063;-86
2021/05/29 05:54:33;;;;;;;31.63;17.85;;;14.20;99.90;;;;;;5084715;28;20048;-87
2021/05/29 05:57:01;;;;;;;29.60;15.98;;;14.20;99.90;;;;;;5056050;28;20045;-86
2021/05/29 05:59:28;;;;;;;32.47;17.92;;;14.30;99.90;;;;;;5060162;28;20142;-86
2021/05/29 06:01:56;;;;;;;28.75;17.20;;;14.40;99.90;;;;;;5067594;28;20045;-87
2021/05/29 06:04:24;;;;;;;26.45;15.82;;;14.40;99.90;;;;;;5067264;28;20053;-85
2021/05/29 06:06:52;;;;;;;34.42;16.38;;;14.50;99.90;;;;;;5068302;28;20106;-86
2021/05/29 06:09:19;;;;;;;30.23;16.77;;;14.40;99.90;;;;;;5053148;28;20053;-86
2021/05/29 06:11:47;;;;;;;30.70;16.95;;;14.40;99.90;;;;;;5064436;28;20052;-85
2021/05/29 06:19:48;;;;;;;30.40;17.63;;;14.30;99.90;;;;;;5064885;28;20045;-86
2021/05/29 06:22:16;;;;;;;28.75;17.27;;;14.30;99.90;;;;;;5066475;28;20056;-87
2021/05/29 06:24:44;;;;;;;32.53;19.13;;;14.30;99.90;;;;;;5069866;28;20036;-85
2021/05/29 06:27:12;;;;;;;38.15;20.45;;;14.30;99.90;;;;;;5067182;28;20059;-84
2021/05/29 06:29:39;;;;;;;30.95;17.60;;;14.30;99.90;;;;;;5056374;28;20056;-85
2021/05/29 06:32:08;;;;;;;35.20;19.20;;;14.40;99.90;;;;;;5067778;28;20503;-85
2021/05/29 06:34:35;;;;;;;36.47;20.40;;;14.40;99.90;;;;;;5073661;28;20432;-85
2021/05/29 06:37:03;;;;;;;34.00;19.75;;;14.40;99.90;;;;;;5062276;28;20500;-87
2021/05/29 06:39:31;;;;;;;34.08;17.10;;;14.50;99.90;;;;;;5055733;28;20499;-86
2021/05/29 06:42:00;;;;;;;34.40;20.42;;;14.50;99.90;;;;;;5065398;28;20060;-85
2021/05/29 06:44:28;;;;;;;36.92;19.05;;;14.60;99.90;;;;;;5064276;28;20044;-86
2021/05/29 06:46:55;;;;;;;32.80;18.98;;;14.60;99.90;;;;;;5064702;28;20070;-85
2021/05/29 06:49:23;;;;;;;33.03;18.52;;;14.70;99.90;;;;;;5060845;28;20048;-86
2021/05/29 06:59:39;;;;;;;28.27;16.00;;;15.00;99.90;;;;;;5066577;28;20516;-86
2021/05/29 07:02:07;;;;;;;36.20;17.02;;;15.10;99.90;;;;;;5063012;28;20168;-85
2021/05/29 07:04:35;;;;;;;35.05;17.08;;;15.20;99.90;;;;;;5062758;28;20067;-86
2021/05/29 07:07:03;;;;;;;27.52;16.20;;;15.30;99.90;;;;;;5067811;28;20044;-86
2021/05/29 07:09:30;;;;;;;24.40;14.85;;;15.30;99.90;;;;;;5066622;28;20044;-88
2021/05/29 07:11:58;;;;;;;30.33;16.08;;;15.40;99.90;;;;;;5065009;28;20056;-88
2021/05/29 07:14:26;;;;;;;30.55;16.25;;;15.70;99.90;;;;;;5061854;28;20052;-86
2021/05/29 07:16:55;;;;;;;27.38;14.88;;;15.60;99.90;;;;;;5062221;28;20532;-85
2021/05/29 07:19:24;;;;;;;26.08;14.13;;;15.70;99.90;;;;;;5058866;28;20055;-89
2021/05/29 07:21:52;;;;;;;27.65;16.48;;;15.60;99.90;;;;;;5065552;28;20071;-86
2021/05/29 07:24:21;;;;;;;33.78;16.05;;;15.70;99.90;;;;;;5068178;28;20068;-86
2021/05/29 07:26:51;;;;;;;27.17;13.20;;;15.70;99.90;;;;;;5029333;28;20045;-85
2021/05/29 07:29:19;;;;;;;23.45;12.95;;;15.80;99.90;;;;;;5049831;28;20045;-86
2021/05/29 07:31:47;;;;;;;28.70;14.00;;;15.90;99.90;;;;;;5033653;28;20511;-87
2021/05/29 07:34:15;;;;;;;25.42;13.15;;;15.90;99.90;;;;;;5067431;28;20060;-88
2021/05/29 07:36:43;;;;;;;24.38;12.90;;;16.00;99.90;;;;;;5057910;28;20063;-87
2021/05/29 07:39:14;;;;;;;25.15;11.60;;;16.00;99.90;;;;;;5052181;28;20412;-87
2021/05/29 07:41:42;;;;;;;24.45;12.15;;;16.10;99.90;;;;;;5067652;28;20471;-86
2021/05/29 07:44:10;;;;;;;26.10;12.88;;;16.10;99.90;;;;;;5064623;28;20040;-88
2021/05/29 07:46:38;;;;;;;26.92;16.13;;;16.10;99.90;;;;;;5061904;28;20052;-88
2021/05/29 07:49:07;;;;;;;26.02;12.82;;;16.20;99.90;;;;;;5064752;28;20052;-88
2021/05/29 07:51:36;;;;;;;32.60;12.93;;;16.30;99.90;;;;;;5038459;28;20480;-88
2021/05/29 07:54:09;;;;;;;24.02;11.10;;;16.40;99.90;;;;;;5050223;28;20044;-88
2021/05/29 07:56:37;;;;;;;24.55;12.45;;;16.50;99.90;;;;;;5048377;28;20079;-88
2021/05/29 07:59:15;;;;;;;19.17;12.00;;;16.60;99.90;;;;;;5058450;28;20539;-88
2021/05/29 08:01:43;;;;;;;24.13;11.25;;;16.70;99.90;;;;;;5071339;28;20063;-89
2021/05/29 08:04:16;;;;;;;24.70;12.45;;;16.90;99.90;;;;;;5070253;28;20052;-90
2021/05/29 08:06:45;;;;;;;22.00;12.23;;;17.00;99.90;;;;;;5057956;28;20071;-91
2021/05/29 08:09:14;;;;;;;25.83;12.07;;;17.10;99.90;;;;;;5066020;28;20048;-89
2021/05/29 08:11:42;;;;;;;20.58;11.00;;;17.20;99.90;;;;;;5065290;28;20060;-87
2021/05/29 08:14:11;;;;;;;25.60;12.23;;;17.30;99.90;;;;;;5064813;28;20045;-89
2021/05/29 08:16:42;;;;;;;22.58;12.25;;;17.30;99.90;;;;;;5064228;28;20052;-91
2021/05/29 08:19:12;;;;;;;22.77;11.90;;;17.50;99.90;;;;;;5063205;28;20052;-89
2021/05/29 08:21:43;;;;;;;26.58;12.68;;;17.50;99.90;;;;;;5087975;28;20051;-89
2021/05/29 08:24:14;;;;;;;27.85;12.40;;;17.60;99.90;;;;;;5066594;28;20067;-90
2021/05/29 08:26:42;;;;;;;28.92;13.02;;;17.70;99.90;;;;;;5046224;28;20053;-88
2021/05/29 08:29:14;;;;;;;26.45;12.05;;;17.70;99.90;;;;;;5058893;28;20060;-90
2021/05/29 08:31:43;;;;;;;20.23;11.68;;;17.70;99.90;;;;;;5059716;28;20041;-90
2021/05/29 08:34:12;;;;;;;23.95;12.07;;;17.70;99.90;;;;;;5023725;28;20060;-90
2021/05/29 08:36:41;;;;;;;22.65;12.25;;;17.70;99.90;;;;;;5058726;28;20091;-91
2021/05/29 08:39:10;;;;;;;24.83;12.05;;;17.80;99.90;;;;;;5051997;28;20050;-89
2021/05/29 08:41:39;;;;;;;23.08;10.52;;;17.70;99.90;;;;;;5064790;28;20056;-88
2021/05/29 08:44:09;;;;;;;23.48;11.25;;;17.90;99.90;;;;;;5066738;28;20055;-89
2021/05/29 08:46:38;;;;;;;23.77;11.82;;;17.90;99.90;;;;;;5065681;28;20053;-89
2021/05/29 08:49:06;;;;;;;24.00;10.95;;;18.00;99.90;;;;;;5054476;28;20052;-88
2021/05/29 08:51:34;;;;;;;21.77;11.25;;;18.00;99.90;;;;;;5064845;28;20049;-88
2021/05/29 08:54:03;;;;;;;25.23;11.35;;;17.90;99.90;;;;;;5051929;28;20065;-91
2021/05/29 08:56:31;;;;;;;29.67;12.55;;;18.00;99.90;;;;;;5048829;28;20059;-87
2021/05/29 08:59:00;;;;;;;20.52;11.48;;;18.10;99.90;;;;;;5056744;28;20052;-88
2021/05/29 09:01:28;;;;;;;20.92;10.80;;;18.10;99.90;;;;;;5055496;28;20041;-91
2021/05/29 09:04:01;;;;;;;27.70;11.30;;;18.20;99.90;;;;;;5063397;28;20078;-92
2021/05/29 09:06:29;;;;;;;25.45;11.95;;;18.30;99.90;;;;;;5056121;28;20055;-88
2021/05/29 09:09:03;;;;;;;20.40;10.07;;;18.40;99.90;;;;;;5073369;28;20477;-90
2021/05/29 09:11:40;;;;;;;19.40;10.65;;;18.40;99.90;;;;;;5071177;28;20455;-89
2021/05/29 09:14:31;;;;;;;24.08;10.63;;;18.50;99.90;;;;;;5073369;28;20048;-90
2021/05/29 09:17:14;;;;;;;23.27;10.98;;;18.60;99.90;;;;;;5064635;28;20049;-86
2021/05/29 09:19:50;;;;;;;22.55;11.45;;;18.70;99.90;;;;;;5065900;28;20637;-87
2021/05/29 09:22:23;;;;;;;23.63;11.70;;;18.80;99.90;;;;;;5051437;28;20044;-92
2021/05/29 09:25:07;;;;;;;21.50;10.88;;;18.80;99.90;;;;;;5067269;28;20067;-87
2021/05/29 09:27:49;;;;;;;27.52;12.82;;;18.90;99.90;;;;;;5050963;28;20056;-89
2021/05/29 09:30:35;;;;;;;24.13;11.75;;;18.90;99.90;;;;;;5059129;28;20487;-88
2021/05/29 09:33:16;;;;;;;24.02;10.82;;;18.90;99.90;;;;;;5070940;28;20435;-93
2021/05/29 09:35:53;;;;;;;19.75;10.05;;;19.00;99.90;;;;;;5067703;28;20119;-93
2021/05/29 09:38:22;;;;;;;22.27;11.40;;;19.10;99.90;;;;;;5067661;28;20056;-89
2021/05/29 09:40:54;;;;;;;23.70;10.98;;;19.20;99.90;;;;;;5070269;28;20044;-91
2021/05/29 09:43:22;;;;;;;21.52;10.45;;;19.30;99.90;;;;;;5069114;28;20063;-91
2021/05/29 09:46:05;;;;;;;21.27;11.20;;;19.40;99.90;;;;;;5068620;28;20059;-91
2021/05/29 09:48:33;;;;;;;24.70;11.23;;;19.50;99.90;;;;;;5058438;28;20263;-89
2021/05/29 09:51:06;;;;;;;32.83;12.40;;;19.60;99.90;;;;;;5064043;28;20052;-88
2021/05/29 09:53:45;;;;;;;26.73;10.35;;;19.70;99.90;;;;;;5069281;28;20051;-91
2021/05/29 09:56:44;;;;;;;27.15;11.52;;;19.80;99.90;;;;;;5073708;28;20496;-87
2021/05/29 09:59:14;;;;;;;30.63;11.60;;;19.90;99.90;;;;;;5068661;28;20052;-88
2021/05/29 10:01:55;;;;;;;24.77;11.18;;;20.00;99.90;;;;;;5071694;28;20049;-88
2021/05/29 10:04:37;;;;;;;20.98;9.25;;;20.10;99.90;;;;;;5061975;28;20052;-90
2021/05/29 10:07:13;;;;;;;21.40;10.30;;;20.30;99.90;;;;;;5062327;28;20057;-92
2021/05/29 10:10:29;;;;;;;19.33;9.95;;;20.40;99.90;;;;;;5062659;28;20037;-93
2021/05/29 10:13:24;;;;;;;23.35;9.45;;;20.50;99.90;;;;;;5072330;28;20064;-92
2021/05/29 10:16:17;;;;;;;19.70;9.52;;;20.50;99.90;;;;;;5071332;28;20065;-92
2021/05/29 10:19:27;;;;;;;15.23;8.25;;;20.60;99.90;;;;;;5055075;28;20569;-92
2021/05/29 10:22:15;;;;;;;;;;;20.70;99.90;;;;;;5091402;28;20052;-92
2021/05/29 10:25:21;;;;;;;19.10;9.32;;;20.80;99.90;;;;;;5073148;28;19920;-92
2021/05/29 10:27:56;;;;;;;25.20;8.68;;;20.50;99.90;;;;;;5086753;28;20049;-92
2021/05/29 10:31:20;;;;;;;16.00;8.10;;;21.00;99.90;;;;;;5053842;28;20053;-91
2021/05/29 10:34:11;;;;;;;15.75;7.70;;;21.30;99.90;;;;;;5060844;28;20036;-92
2021/05/29 10:36:58;;;;;;;22.80;11.03;;;21.60;99.90;;;;;;5070102;28;20044;-93
2021/05/29 10:39:51;;;;;;;20.08;8.43;;;21.30;99.90;;;;;;5072549;28;20048;-93
2021/05/29 10:43:07;;;;;;;17.95;7.47;;;21.40;99.90;;;;;;5088027;28;20041;-93
2021/05/29 10:46:13;;;;;;;17.95;7.85;;;21.40;99.90;;;;;;5102775;28;20468;-93
2021/05/29 10:49:04;;;;;;;21.70;9.93;;;21.40;99.90;;;;;;5072395;28;20052;-92
2021/05/29 10:51:49;;;;;;;17.67;7.80;;;21.30;99.80;;;;;;5086732;28;20053;-92
2021/05/29 10:54:30;;;;;;;18.17;7.47;;;21.30;99.50;;;;;;5089741;28;20055;-91
2021/05/29 10:57:20;;;;;;;13.60;6.35;;;21.40;99.70;;;;;;5071392;28;20056;-91
2021/05/29 10:59:59;;;;;;;17.17;8.50;;;21.30;99.70;;;;;;5092581;28;20048;-94
2021/05/29 11:03:23;;;;;;;16.50;8.52;;;21.40;99.90;;;;;;5067188;28;20516;-92
2021/05/29 11:06:02;;;;;;;26.92;8.15;;;21.40;98.90;;;;;;5072282;28;20049;-92
2021/05/29 11:09:37;;;;;;;16.90;8.27;;;21.40;98.90;;;;;;5075858;28;20059;-92
2021/05/29 11:12:49;;;;;;;16.48;7.00;;;21.50;98.20;;;;;;5063108;28;20056;-94
2021/05/29 11:16:01;;;;;;;16.55;7.07;;;21.50;97.80;;;;;;5086777;28;20048;-92
2021/05/29 11:18:54;;;;;;;14.98;7.03;;;21.50;98.40;;;;;;5053252;28;20044;-92
2021/05/29 11:22:25;;;;;;;17.90;7.65;;;21.60;98.10;;;;;;5073836;28;20056;-92
2021/05/29 11:25:06;;;;;;;14.23;7.05;;;21.70;96.40;;;;;;5087237;28;20056;-91
2021/05/29 11:27:45;;;;;;;19.85;7.05;;;21.30;96.80;;;;;;5057374;28;20049;-92
2021/05/29 11:30:34;;;;;;;17.20;7.15;;;21.60;96.50;;;;;;5024154;28;20063;-92
2021/05/29 11:36:15;;;;;;;14.80;7.65;;;21.70;96.40;;;;;;5078340;28;20049;-91
2021/05/29 11:39:14;;;;;;;22.02;8.50;;;22.10;96.20;;;;;;5003824;28;20430;-89
2021/05/29 11:42:05;;;;;;;20.52;9.07;;;21.90;94.30;;;;;;4991264;28;20051;-90
2021/05/29 11:45:18;;;;;;;22.17;10.70;;;22.00;95.10;;;;;;4993711;28;20141;-90
2021/05/29 11:47:57;;;;;;;22.35;10.55;;;22.00;94.10;;;;;;5048863;23;20049;-90
2021/05/29 11:50:40;;;;;;;23.83;11.35;;;22.00;94.00;;;;;;5077754;28;20060;-93
2021/05/29 11:53:11;;;;;;;20.60;10.23;;;22.10;94.20;;;;;;5057424;23;20041;-90
2021/05/29 11:55:58;;;;;;;22.50;12.07;;;22.10;93.80;;;;;;5044952;28;20061;-91
2021/05/29 11:59:05;;;;;;;19.10;10.65;;;22.10;92.10;;;;;;5087804;23;20063;-91
2021/05/29 12:01:55;;;;;;;19.58;9.95;;;22.20;92.70;;;;;;5011578;28;20050;-90
2021/05/29 12:08:09;;;;;;;19.95;9.20;;;22.40;93.10;;;;;;5104572;28;20046;-91
2021/05/29 12:11:11;;;;;;;18.80;10.18;;;22.50;93.20;;;;;;5083021;28;20044;-91
2021/05/29 12:14:15;;;;;;;21.85;10.52;;;22.50;92.40;;;;;;5067279;28;20044;-91
2021/05/29 12:16:55;;;;;;;20.48;11.07;;;22.40;92.90;;;;;;5053085;28;20043;-91
2021/05/29 12:19:54;;;;;;;23.35;10.52;;;22.50;92.00;;;;;;5070270;28;20048;-91
2021/05/29 12:22:43;;;;;;;21.40;10.35;;;22.50;92.50;;;;;;5102936;28;20042;-92
2021/05/29 12:25:29;;;;;;;23.45;10.63;;;22.50;92.20;;;;;;5066942;28;20048;-91
2021/05/29 12:27:59;;;;;;;21.13;11.25;;;22.50;92.20;;;;;;5053232;28;20541;-90
2021/05/29 12:30:55;;;;;;;22.00;11.63;;;22.40;92.50;;;;;;5081271;28;20123;-91
2021/05/29 12:34:02;;;;;;;20.08;11.38;;;22.60;91.90;;;;;;5079378;28;20048;-91
2021/05/29 12:37:01;;;;;;;20.35;10.77;;;22.60;91.50;;;;;;5060417;28;20052;-91
2021/05/29 12:39:52;;;;;;;22.67;11.38;;;22.50;91.00;;;;;;5045235;28;20053;-90
2021/05/29 12:42:29;;;;;;;25.52;12.50;;;22.50;90.90;;;;;;5043316;28;20053;-93
2021/05/29 12:45:20;;;;;;;21.20;10.43;;;22.50;90.90;;;;;;5098108;22;20055;-91
2021/05/29 12:48:06;;;;;;;25.73;11.65;;;22.50;90.20;;;;;;5038689;28;20053;-91
2021/05/29 12:53:53;;;;;;;31.40;11.48;;;22.60;90.10;;;;;;5057612;28;20049;-91
2021/05/29 12:56:26;;;;;;;20.92;9.73;;;22.60;90.40;;;;;;5037179;28;20053;-91
2021/05/29 12:59:08;;;;;;;23.15;11.07;;;22.80;91.10;;;;;;5020887;28;20050;-90
2021/05/29 13:11:30;;;;;;;21.83;10.52;;;23.40;90.50;;;;;;5038771;28;20049;-90
2021/05/29 13:14:13;;;;;;;23.95;10.85;;;23.50;90.80;;;;;;5026957;28;20056;-89
2021/05/29 13:16:59;;;;;;;22.85;11.52;;;23.50;89.70;;;;;;5042172;28;20056;-90
2021/05/29 13:19:50;;;;;;;;;;;23.50;88.00;;;;;;5078534;22;20063;-89
2021/05/29 13:22:40;;;;;;;19.80;10.73;;;23.40;87.30;;;;;;5109166;22;19920;-90
2021/05/29 13:25:13;;;;;;;20.95;9.88;;;23.50;87.50;;;;;;5066759;28;20036;-90
2021/05/29 13:28:12;;;;;;;19.80;10.10;;;23.70;85.80;;;;;;5059711;28;20411;-90
2021/05/29 13:30:48;;;;;;;21.95;9.80;;;24.00;84.00;;;;;;5076522;23;20152;-88
2021/05/29 13:33:36;;;;;;;22.38;9.75;;;24.00;83.10;;;;;;5034565;28;20056;-89
2021/05/29 13:36:17;;;;;;;17.10;9.05;;;24.10;81.70;;;;;;5137174;22;20060;-90
2021/05/29 13:39:07;;;;;;;20.92;8.40;;;24.10;80.30;;;;;;5070808;28;20064;-89